Flugplatz Leipzig Halle

Bericht für EDDP

vom 17.09. um 13:20 UTC

Wind 23 kt aus 270°

Sichtweite 10 km oder mehr

aufgelockert bewölkt in 4300 ft

Temperatur 16.0°C

Taupunkt 6.0°C

Luftfeuchtigkeit 51%

Luftdruck 1014 hPa

EDDP 171320Z 27023KT 9999 SCT043 16/06 Q1014 TEMPO 28020G30KT

Prognose für EDDP

vom 17.09. um 00:00 UTC

Zwischen 00:00 UTC und 00:00 UTC

Wind 15 kt aus 270° in Böen 30 kt

Sichtweite 10 km oder mehr

aufgelockert bewölkt in 4500 ft


Zwischen 00:00 UTC und 00:00 UTC zeitweise mit einer Wahrscheinlichkeit von 30%

Wind 20 kt aus 280° in Böen 35 kt


Zwischen 00:00 und 00:00 UTC übergehend zu

Wind 11 kt aus 270°

Sichtweite 10 km oder mehr

aufgelockert bewölkt in 4500 ft


Am 18.09. zwischen 00:00 UTC und 00:00 UTC zeitweise

Wind 15 kt aus 280° in Böen 25 kt

TAF EDDP 171100Z 1712/1812 27015G30KT 9999 SCT045 PROB30 TEMPO 1712/1715 28020G35KT BECMG 1716/1719 27011KT TEMPO 1810/1812 28015G25KT
Impressum